Time;durP1;ratioP1;P1;durP2;ratioP2;P2;SDS_P1;SDS_P2;PMS_P1;PMS_P2;Temp;Humidity;BMP_temperature;BMP_pressure;BME280_temperature;BME280_humidity;BME280_pressure;Samples;Min_cycle;Max_cycle;Signal;HPM_P1;HPM_P2
2022/04/14 00:02:21;;;;;;;39.25;32.40;;;;;;;11.29;95.93;101955.56;5010420;28;20037;-54
2022/04/14 00:04:46;;;;;;;37.85;32.70;;;;;;;11.25;95.97;101954.19;5007412;28;20079;-55
2022/04/14 00:07:12;;;;;;;39.95;32.85;;;;;;;11.17;95.48;101954.88;5009052;28;20102;-55
2022/04/14 00:09:37;;;;;;;37.67;32.20;;;;;;;11.19;95.62;101952.06;5012755;28;20124;-55
2022/04/14 00:12:03;;;;;;;40.25;32.72;;;;;;;11.17;95.83;101952.22;5011602;28;20033;-56
2022/04/14 00:14:28;;;;;;;41.50;34.22;;;;;;;11.19;95.62;101949.41;5011621;28;20057;-54
2022/04/14 00:16:53;;;;;;;40.08;32.53;;;;;;;11.16;95.86;101946.03;5011259;28;20062;-54
2022/04/14 00:19:18;;;;;;;42.42;34.33;;;;;;;11.16;95.57;101946.03;5010798;28;20030;-55
2022/04/14 00:21:44;;;;;;;37.10;31.08;;;;;;;11.14;96.55;101940.03;5009614;28;20064;-54
2022/04/14 00:24:09;;;;;;;36.22;30.08;;;;;;;11.13;95.94;101942.84;5011565;28;20034;-55
2022/04/14 00:26:34;;;;;;;41.30;33.35;;;;;;;11.15;95.62;101940.91;5015320;28;20051;-55
2022/04/14 00:29:00;;;;;;;39.40;32.97;;;;;;;11.14;96.37;101942.69;5010756;28;20495;-54
2022/04/14 00:31:25;;;;;;;37.80;30.95;;;;;;;11.07;96.81;101944.22;5010105;28;20034;-56
2022/04/14 00:33:50;;;;;;;36.47;30.25;;;;;;;11.11;96.98;101939.50;5009945;28;20399;-55
2022/04/14 00:36:16;;;;;;;41.08;32.00;;;;;;;11.07;96.29;101938.94;5006760;28;20034;-56
2022/04/14 00:38:41;;;;;;;37.55;31.85;;;;;;;11.08;96.19;101940.59;5011084;28;20037;-55
2022/04/14 00:41:07;;;;;;;28.13;23.67;;;;;;;11.09;96.37;101936.97;5010237;28;20450;-53
2022/04/14 00:43:34;;;;;;;26.50;21.70;;;;;;;11.09;95.90;101936.97;5010090;28;20025;-55
2022/04/14 00:46:00;;;;;;;25.40;21.60;;;;;;;11.05;96.15;101937.38;5010968;28;20038;-55
2022/04/14 00:48:27;;;;;;;26.30;21.55;;;;;;;11.05;95.91;101938.19;5010859;28;20455;-53
2022/04/14 00:50:52;;;;;;;25.42;21.65;;;;;;;10.98;95.83;101945.03;5009019;28;20037;-54
2022/04/14 00:53:17;;;;;;;25.90;21.13;;;;;;;10.92;96.16;101930.53;5009398;28;20029;-55
2022/04/14 00:55:43;;;;;;;24.10;20.15;;;;;;;10.91;96.06;101936.81;5006869;28;20056;-53
2022/04/14 00:58:08;;;;;;;24.13;20.40;;;;;;;10.91;95.71;101942.13;5011365;28;20477;-54
2022/04/14 01:00:33;;;;;;;23.10;20.10;;;;;;;10.87;95.52;101938.88;5010718;28;20042;-54
2022/04/14 01:02:59;;;;;;;26.48;21.35;;;;;;;10.83;95.19;101937.47;5008293;28;20967;-55
2022/04/14 01:05:26;;;;;;;34.40;28.77;;;;;;;10.83;95.76;101942.78;5010085;28;20037;-54
2022/04/14 01:07:52;;;;;;;27.25;23.38;;;;;;;10.77;96.59;101951.28;5007847;28;20038;-56
2022/04/14 01:10:17;;;;;;;27.73;22.60;;;;;;;10.83;96.22;101939.28;5010812;28;20120;-54
2022/04/14 01:12:43;;;;;;;36.85;28.35;;;;;;;10.76;96.40;101936.34;5010956;28;20466;-56
2022/04/14 01:15:13;;;;;;;41.88;33.65;;;;;;;10.81;97.08;101928.81;5010605;28;20042;-56
2022/04/14 01:17:40;;;;;;;44.47;35.28;;;;;;;10.84;97.22;101938.31;5009643;28;20085;-55
2022/04/14 01:20:06;;;;;;;44.60;35.85;;;;;;;10.82;96.84;101934.97;5008901;28;20032;-55
2022/04/14 01:22:35;;;;;;;45.83;36.38;;;;;;;10.81;97.87;101938.59;5016866;28;20395;-54
2022/04/14 01:25:01;;;;;;;46.10;36.38;;;;;;;10.79;97.38;101941.38;5008667;28;20030;-54
2022/04/14 01:27:28;;;;;;;47.15;37.08;;;;;;;10.80;97.13;101932.44;5009535;28;20096;-56
2022/04/14 01:29:54;;;;;;;43.80;35.72;;;;;;;10.86;97.77;101937.19;5008872;28;20481;-54
2022/04/14 01:32:20;;;;;;;47.53;37.42;;;;;;;10.84;97.61;101933.84;5011840;28;20038;-54
2022/04/14 01:34:46;;;;;;;43.80;36.03;;;;;;;10.81;96.94;101931.44;5010077;28;20029;-56
2022/04/14 01:37:12;;;;;;;48.63;36.83;;;;;;;10.78;97.46;101931.75;5009408;28;20392;-56
2022/04/14 01:39:38;;;;;;;47.13;37.65;;;;;;;10.79;97.65;101933.41;5003501;28;20038;-55
2022/04/14 01:42:04;;;;;;;47.33;37.67;;;;;;;10.76;97.78;101936.34;5009238;28;20093;-54
2022/04/14 01:44:30;;;;;;;46.60;37.67;;;;;;;10.73;98.13;101931.31;5010665;28;20073;-55
2022/04/14 01:46:55;;;;;;;46.67;37.13;;;;;;;10.70;97.91;101926.28;5003195;28;20509;-54
2022/04/14 01:49:21;;;;;;;46.80;37.40;;;;;;;10.74;97.95;101931.19;5008059;28;20037;-55
2022/04/14 01:51:48;;;;;;;46.22;36.97;;;;;;;10.76;98.28;101931.88;5009504;28;20476;-55
2022/04/14 01:54:13;;;;;;;49.22;38.03;;;;;;;10.73;98.06;101934.81;5011006;28;20579;-53
2022/04/14 01:56:39;;;;;;;49.22;38.30;;;;;;;10.70;98.54;101936.91;5010336;28;20038;-54
2022/04/14 01:59:04;;;;;;;46.13;37.17;;;;;;;10.71;98.81;101931.44;5012047;28;20026;-55
2022/04/14 02:01:30;;;;;;;50.22;38.70;;;;;;;10.67;99.31;101942.47;5010368;28;20037;-55
2022/04/14 02:03:58;;;;;;;48.00;38.33;;;;;;;10.67;99.13;101947.75;5011684;28;20920;-56
2022/04/14 02:06:24;;;;;;;51.90;39.25;;;;;;;10.68;99.52;101949.44;5005007;28;20045;-54
2022/04/14 02:08:49;;;;;;;48.13;38.00;;;;;;;10.67;99.82;101942.47;5012827;28;20116;-54
2022/04/14 02:11:15;;;;;;;49.20;37.65;;;;;;;10.69;99.10;101949.31;5009202;28;20148;-55
2022/04/14 02:13:40;;;;;;;51.38;38.67;;;;;;;10.72;98.89;101945.56;5009203;28;20357;-56
2022/04/14 02:16:05;;;;;;;46.50;37.03;;;;;;;10.74;98.37;101954.19;5009094;28;20060;-56
2022/04/14 02:18:31;;;;;;;50.45;37.92;;;;;;;10.73;99.09;101947.22;5012967;28;20128;-54
2022/04/14 02:20:56;;;;;;;49.63;38.80;;;;;;;10.72;98.74;101949.03;5005161;28;20125;-55
2022/04/14 02:23:25;;;;;;;41.17;32.72;;;;;;;10.63;98.13;101956.00;5015423;28;20034;-55
2022/04/14 02:25:50;;;;;;;42.88;30.65;;;;;;;10.55;97.91;101953.16;5012652;28;20037;-54
2022/04/14 02:28:15;;;;;;;36.90;29.08;;;;;;;10.55;97.87;101953.16;5014258;28;20045;-52
2022/04/14 02:30:41;;;;;;;37.72;30.15;;;;;;;10.48;98.27;101949.38;5010812;28;20041;-54
2022/04/14 02:33:06;;;;;;;36.80;29.52;;;;;;;10.46;97.60;101953.97;5012431;28;20433;-55
2022/04/14 02:35:32;;;;;;;39.80;31.25;;;;;;;10.43;97.81;101951.59;5012185;28;20473;-54
2022/04/14 02:37:57;;;;;;;37.95;29.73;;;;;;;10.42;97.77;101957.84;5013108;28;20030;-55
2022/04/14 02:40:26;;;;;;;37.55;28.65;;;;;;;10.28;97.46;101957.22;5011772;28;20373;-55
2022/04/14 02:42:53;;;;;;;41.25;32.45;;;;;;;10.31;97.85;101959.59;5013440;28;20034;-55
2022/04/14 02:45:20;;;;;;;46.45;36.22;;;;;;;10.30;98.04;101957.91;5011575;28;20029;-52
2022/04/14 02:47:45;;;;;;;34.35;27.45;;;;;;;10.28;97.43;101959.88;5012765;28;20405;-55
2022/04/14 02:50:10;;;;;;;38.78;29.90;;;;;;;10.31;98.02;101964.88;5012283;28;20113;-54
2022/04/14 02:52:36;;;;;;;49.25;36.45;;;;;;;10.33;99.03;101960.31;5010171;28;20424;-55
2022/04/14 02:55:01;;;;;;;39.67;31.40;;;;;;;10.31;97.75;101964.88;5014580;28;20034;-54
2022/04/14 02:57:26;;;;;;;35.60;28.23;;;;;;;10.17;97.43;101958.13;5011767;28;20037;-55
2022/04/14 02:59:52;;;;;;;34.33;27.67;;;;;;;10.17;97.64;101957.28;5012180;28;20459;-55
2022/04/14 03:02:17;;;;;;;37.63;29.27;;;;;;;10.14;96.52;101949.59;5011383;28;20392;-55
2022/04/14 03:04:43;;;;;;;33.75;27.63;;;;;;;10.17;96.65;101957.28;5013099;28;20184;-53
2022/04/14 03:07:08;;;;;;;31.70;26.20;;;;;;;10.13;96.39;101950.56;5011166;28;20079;-55
2022/04/14 03:09:33;;;;;;;41.97;32.30;;;;;;;10.09;96.67;101942.03;5014465;28;20038;-55
2022/04/14 03:11:59;;;;;;;47.30;37.20;;;;;;;10.08;97.00;101953.63;5022597;28;20041;-53
2022/04/14 03:14:24;;;;;;;48.65;37.92;;;;;;;10.08;97.56;101954.44;5014673;28;20045;-54
2022/04/14 03:16:49;;;;;;;52.30;39.47;;;;;;;10.03;98.37;101961.13;5014482;28;20050;-53
2022/04/14 03:19:14;;;;;;;54.65;40.20;;;;;;;10.01;99.26;101953.28;5010724;28;20112;-54
2022/04/14 03:21:40;;;;;;;47.45;37.13;;;;;;;10.04;98.39;101955.69;5015169;28;20022;-54
2022/04/14 03:24:05;;;;;;;48.60;38.42;;;;;;;10.05;98.51;101962.66;5012581;28;20029;-55
2022/04/14 03:26:30;;;;;;;49.53;38.60;;;;;;;10.06;98.57;101961.69;5013255;28;20042;-55
2022/04/14 03:28:56;;;;;;;52.75;40.33;;;;;;;10.03;98.44;101956.66;5012256;28;20034;-54
2022/04/14 03:31:21;;;;;;;51.92;38.70;;;;;;;10.02;98.23;101949.66;5004655;28;20676;-55
2022/04/14 03:33:47;;;;;;;54.22;41.28;;;;;;;10.00;98.57;101950.75;5008492;28;20030;-56
2022/04/14 03:36:12;;;;;;;53.65;40.85;;;;;;;9.99;98.80;101957.88;5015130;28;20108;-54
2022/04/14 03:38:37;;;;;;;53.13;40.20;;;;;;;10.00;98.84;101961.34;5006445;28;20143;-55
2022/04/14 03:41:07;;;;;;;55.13;40.47;;;;;;;9.98;98.45;101964.16;5012566;28;20037;-54
2022/04/14 03:43:34;;;;;;;56.35;41.42;;;;;;;9.96;98.93;101966.09;5008741;28;20045;-55
2022/04/14 03:45:59;;;;;;;54.72;40.97;;;;;;;9.92;98.78;101957.56;5012008;28;20165;-54
2022/04/14 03:48:24;;;;;;;52.80;39.90;;;;;;;9.92;98.04;101962.03;5010940;28;20124;-54
2022/04/14 03:50:50;;;;;;;52.15;39.63;;;;;;;9.92;97.96;101954.09;5011419;28;20514;-55
2022/04/14 03:53:19;;;;;;;48.15;38.05;;;;;;;9.90;97.61;101951.56;5010283;28;20026;-56
2022/04/14 03:55:46;;;;;;;53.33;38.80;;;;;;;9.89;97.60;101954.31;5011692;28;20034;-53
2022/04/14 03:58:11;;;;;;;56.30;40.35;;;;;;;9.86;98.56;101949.31;5011245;28;20033;-55
2022/04/14 04:00:37;;;;;;;72.55;44.80;;;;;;;9.83;99.43;101951.22;5007138;28;20045;-55
2022/04/14 04:03:02;;;;;;;64.55;41.33;;;;;;;9.86;100.00;101959.91;5005348;28;20087;-54
2022/04/14 04:05:28;;;;;;;84.53;43.42;;;;;;;9.89;100.00;101954.31;5007750;28;20037;-55
2022/04/14 04:07:53;;;;;;;73.32;40.60;;;;;;;9.90;99.90;101961.31;5010460;28;20569;-52
2022/04/14 04:10:18;;;;;;;90.03;43.15;;;;;;;9.83;100.00;101961.00;5005954;28;20100;-54
2022/04/14 04:12:44;;;;;;;131.02;40.45;;;;;;;9.85;100.00;101968.78;5001003;28;20030;-54
2022/04/14 04:15:11;;;;;;;93.20;41.88;;;;;;;9.88;100.00;101973.84;5009951;28;20033;-56
2022/04/14 04:17:37;;;;;;;89.65;40.15;;;;;;;9.85;100.00;101971.44;5009411;28;20054;-55
2022/04/14 04:20:02;;;;;;;103.63;37.47;;;;;;;9.78;100.00;101973.78;5007830;28;20026;-55
2022/04/14 04:22:28;;;;;;;79.60;37.50;;;;;;;9.73;100.00;101982.13;5009323;28;20132;-55
2022/04/14 04:24:53;;;;;;;101.28;38.05;;;;;;;9.69;100.00;101983.34;5006794;28;20148;-53
2022/04/14 04:27:18;;;;;;;75.63;33.13;;;;;;;9.65;100.00;101981.91;5006942;28;20527;-54
2022/04/14 04:29:44;;;;;;;86.78;35.95;;;;;;;9.63;100.00;101992.59;5010716;28;20041;-55
2022/04/14 04:32:09;;;;;;;90.30;34.78;;;;;;;9.55;100.00;101990.63;5011889;28;20072;-54
2022/04/14 04:34:34;;;;;;;73.00;34.67;;;;;;;9.53;100.00;101987.25;5009608;28;20041;-56
2022/04/14 04:36:59;;;;;;;63.70;33.40;;;;;;;9.53;100.00;101981.94;5012651;28;20072;-55
2022/04/14 04:39:25;;;;;;;61.58;32.83;;;;;;;9.48;100.00;101993.88;5010489;28;20369;-53
2022/04/14 04:41:50;;;;;;;67.80;34.28;;;;;;;9.47;100.00;101993.03;5008174;28;20096;-54
2022/04/14 04:44:15;;;;;;;58.03;33.67;;;;;;;9.44;100.00;101988.00;5011614;28;20087;-54
2022/04/14 04:46:40;;;;;;;52.47;32.85;;;;;;;9.42;100.00;101995.22;5023496;28;20516;-53
2022/04/14 04:49:06;;;;;;;58.65;33.95;;;;;;;9.40;100.00;101991.88;5011314;28;20072;-55
2022/04/14 04:51:31;;;;;;;61.13;32.55;;;;;;;9.38;100.00;102001.75;5011797;28;20034;-54
2022/04/14 04:53:56;;;;;;;81.43;32.85;;;;;;;9.31;100.00;102000.56;5004647;28;20481;-56
2022/04/14 04:56:22;;;;;;;50.42;33.22;;;;;;;9.32;100.00;101999.59;5009759;28;20064;-55
2022/04/14 04:58:47;;;;;;;78.90;34.97;;;;;;;9.34;100.00;102003.81;5011233;28;20037;-55
2022/04/14 05:01:12;;;;;;;65.85;33.40;;;;;;;9.35;100.00;102004.63;5009092;28;20547;-54
2022/04/14 05:03:38;;;;;;;68.65;34.20;;;;;;;9.33;100.00;102004.75;5008100;28;20607;-53
2022/04/14 05:06:04;;;;;;;61.22;33.58;;;;;;;9.33;100.00;102011.88;5008777;28;20037;-54
2022/04/14 05:08:29;;;;;;;71.93;32.85;;;;;;;9.31;100.00;102005.88;5008188;28;20367;-56
2022/04/14 05:10:55;;;;;;;73.68;33.20;;;;;;;9.33;100.00;102004.75;5008299;28;20045;-55
2022/04/14 05:13:20;;;;;;;52.30;32.78;;;;;;;9.33;100.00;102006.56;5010790;28;20038;-54
2022/04/14 05:15:45;;;;;;;56.95;33.45;;;;;;;9.29;100.00;102017.41;5009875;28;20366;-53
2022/04/14 05:18:10;;;;;;;53.47;32.50;;;;;;;9.28;100.00;102013.06;5009648;28;20065;-55
2022/04/14 05:20:36;;;;;;;58.20;33.72;;;;;;;9.24;100.00;102019.56;5005588;28;20425;-54
2022/04/14 05:23:02;;;;;;;52.05;32.67;;;;;;;9.24;100.00;102013.44;5010515;28;20045;-54
2022/04/14 05:25:28;;;;;;;56.85;32.58;;;;;;;9.21;100.00;102008.38;5025500;28;20636;-54
2022/04/14 05:27:53;;;;;;;51.38;33.25;;;;;;;9.23;100.00;102020.53;5014756;28;20124;-53
2022/04/14 05:30:18;;;;;;;46.13;32.38;;;;;;;9.24;100.00;102019.56;5017585;28;20436;-53
2022/04/14 05:32:44;;;;;;;47.97;32.55;;;;;;;9.23;100.00;102025.81;5016024;28;20061;-55
2022/04/14 05:35:09;;;;;;;46.88;33.00;;;;;;;9.18;100.00;102030.66;5014144;28;20037;-55
2022/04/14 05:37:35;;;;;;;47.72;32.95;;;;;;;9.15;100.00;102028.25;5018188;28;20049;-54
2022/04/14 05:40:02;;;;;;;45.53;32.88;;;;;;;9.16;100.00;102027.28;5011691;28;20377;-54
2022/04/14 05:42:27;;;;;;;46.15;32.72;;;;;;;9.18;100.00;102035.13;5013919;28;20330;-55
2022/04/14 05:44:52;;;;;;;43.78;31.85;;;;;;;9.16;100.00;102043.16;5016101;28;20120;-55
2022/04/14 05:47:18;;;;;;;42.78;32.72;;;;;;;9.19;100.00;102048.22;5012039;28;20385;-55
2022/04/14 05:49:43;;;;;;;42.20;32.75;;;;;;;9.20;100.00;102049.91;5013293;28;20034;-53
2022/04/14 05:52:08;;;;;;;42.25;32.83;;;;;;;9.24;100.00;102045.22;5010634;28;20032;-53
2022/04/14 05:54:33;;;;;;;41.38;32.83;;;;;;;9.26;100.00;102043.28;5010388;28;20034;-52
2022/04/14 05:56:59;;;;;;;38.45;31.08;;;;;;;9.27;100.00;102044.94;5011069;28;20026;-55
2022/04/14 05:59:24;;;;;;;39.45;31.85;;;;;;;9.32;100.00;102041.94;5012638;28;20052;-56
2022/04/14 06:01:49;;;;;;;39.60;32.38;;;;;;;9.34;100.00;102045.31;5012597;28;20051;-56
2022/04/14 06:04:14;;;;;;;38.65;32.00;;;;;;;9.35;100.00;102049.63;5008901;28;20065;-55
2022/04/14 06:06:40;;;;;;;41.95;33.30;;;;;;;9.36;100.00;102048.66;5012254;28;20037;-56
2022/04/14 06:09:06;;;;;;;38.50;31.88;;;;;;;9.44;100.00;102048.06;5010676;28;20038;-56
2022/04/14 06:11:31;;;;;;;41.20;32.38;;;;;;;9.44;100.00;102043.59;5003653;28;20029;-54
2022/04/14 06:13:56;;;;;;;38.05;31.50;;;;;;;9.48;100.00;102042.38;5002145;28;20481;-56
2022/04/14 06:16:22;;;;;;;39.42;32.55;;;;;;;9.55;99.90;102054.19;5006805;28;20029;-56
2022/04/14 06:18:47;;;;;;;39.42;32.55;;;;;;;9.57;100.00;102048.72;5013213;28;20436;-56
2022/04/14 06:21:12;;;;;;;39.35;32.10;;;;;;;9.65;100.00;102048.13;5024958;28;20087;-56
2022/04/14 06:23:38;;;;;;;42.45;33.28;;;;;;;9.70;99.73;102051.22;5018148;28;20391;-56
2022/04/14 06:26:04;;;;;;;39.40;30.80;;;;;;;9.74;99.85;102050.03;5006505;28;20042;-56
2022/04/14 06:28:29;;;;;;;40.50;32.20;;;;;;;9.80;99.48;102052.16;5014535;28;20041;-56
2022/04/14 06:30:56;;;;;;;39.70;32.33;;;;;;;9.86;100.00;102056.09;5008471;28;21744;-56
2022/04/14 06:33:23;;;;;;;43.05;32.72;;;;;;;9.94;99.51;102052.81;5008766;28;20026;-55
2022/04/14 06:35:49;;;;;;;39.92;32.05;;;;;;;10.03;99.70;102052.06;5012762;28;20026;-56
2022/04/14 06:38:14;;;;;;;40.17;32.85;;;;;;;10.12;99.63;102060.22;5013680;28;20457;-55
2022/04/14 06:40:40;;;;;;;42.83;33.95;;;;;;;10.15;100.00;102054.63;5010050;28;20057;-56
2022/04/14 06:43:05;;;;;;;40.53;32.30;;;;;;;10.20;100.00;102055.09;5012867;28;20084;-56
2022/04/14 06:45:31;;;;;;;41.83;32.85;;;;;;;10.21;100.00;102054.13;5012776;28;20033;-56
2022/04/14 06:47:57;;;;;;;41.15;32.95;;;;;;;10.25;100.00;102052.91;5011461;28;20060;-54
2022/04/14 06:50:22;;;;;;;42.60;33.50;;;;;;;10.33;99.31;102058.41;5010883;28;20100;-57
2022/04/14 06:52:47;;;;;;;43.35;33.72;;;;;;;10.42;99.67;102055.94;5009557;28;20481;-56
2022/04/14 06:55:15;;;;;;;40.78;32.28;;;;;;;10.47;99.19;102048.47;5021017;28;20092;-55
2022/04/14 06:57:41;;;;;;;42.35;32.40;;;;;;;10.55;99.57;102051.31;5013706;28;20038;-56
2022/04/14 07:00:07;;;;;;;44.17;32.58;;;;;;;10.63;99.77;102054.16;5007617;28;20550;-56
2022/04/14 07:02:33;;;;;;;37.42;28.73;;;;;;;10.73;98.89;102053.34;5012148;28;20029;-54
2022/04/14 07:04:59;;;;;;;41.70;31.10;;;;;;;10.84;99.04;102055.91;5001174;28;20088;-57
2022/04/14 07:07:24;;;;;;;36.45;26.17;;;;;;;10.91;97.19;102050.91;5005296;28;20026;-56
2022/04/14 07:09:49;;;;;;;35.58;26.85;;;;;;;11.03;97.26;102059.59;5005685;28;20045;-56
2022/04/14 07:12:15;;;;;;;34.13;25.58;;;;;;;11.11;96.10;102056.28;5001590;28;20035;-57
2022/04/14 07:14:40;;;;;;;34.83;26.02;;;;;;;11.21;96.21;102061.63;5009575;28;20036;-57
2022/04/14 07:17:05;;;;;;;33.50;25.67;;;;;;;11.28;96.16;102063.59;5007760;28;20611;-57
2022/04/14 07:19:31;;;;;;;36.17;25.50;;;;;;;11.33;95.03;102065.84;5009998;28;20030;-56
2022/04/14 07:21:56;;;;;;;37.90;26.48;;;;;;;11.38;94.79;102063.63;5014551;28;20461;-56
2022/04/14 07:24:21;;;;;;;35.50;25.80;;;;;;;11.48;94.71;102068.09;5012884;28;20075;-56
2022/04/14 07:26:47;;;;;;;38.03;26.73;;;;;;;11.55;94.58;102066.59;5002470;28;20083;-57
2022/04/14 07:29:12;;;;;;;34.40;25.83;;;;;;;11.60;93.98;102069.66;5010852;28;20038;-57
2022/04/14 07:31:39;;;;;;;33.75;24.92;;;;;;;11.70;93.46;102070.50;5012246;28;20407;-57
2022/04/14 07:34:06;;;;;;;30.13;22.35;;;;;;;11.77;91.10;102080.59;5014414;28;20030;-56
2022/04/14 07:36:31;;;;;;;31.25;22.58;;;;;;;11.80;91.40;102072.34;5011127;28;20048;-58
2022/04/14 07:38:56;;;;;;;30.67;22.77;;;;;;;11.86;90.88;102077.09;5007815;28;20140;-56
2022/04/14 07:41:21;;;;;;;28.55;20.77;;;;;;;11.90;90.10;102078.50;5011135;28;20056;-56
2022/04/14 07:43:47;;;;;;;28.75;19.70;;;;;;;11.97;88.61;102078.78;5009412;28;20041;-57
2022/04/14 07:46:12;;;;;;;26.85;19.00;;;;;;;12.03;88.88;102085.38;5008240;28;20667;-57
2022/04/14 07:48:37;;;;;;;28.85;19.10;;;;;;;12.07;88.78;102079.66;5007407;28;20038;-58
2022/04/14 07:51:03;;;;;;;27.27;19.23;;;;;;;12.11;88.04;102080.22;5008744;28;20029;-56
2022/04/14 07:53:29;;;;;;;25.67;18.38;;;;;;;12.19;87.15;102083.00;5029761;28;20602;-56
2022/04/14 07:55:55;;;;;;;25.40;18.42;;;;;;;12.21;86.95;102086.38;5022966;28;20099;-57
2022/04/14 07:58:20;;;;;;;27.35;18.38;;;;;;;12.33;87.29;102080.91;5002621;28;20026;-57
2022/04/14 08:00:46;;;;;;;26.35;19.17;;;;;;;12.40;88.58;102074.03;5014563;28;20057;-56
2022/04/14 08:03:12;;;;;;;29.38;19.83;;;;;;;12.49;87.55;102081.13;5010247;28;20022;-57
2022/04/14 08:05:42;;;;;;;26.45;18.33;;;;;;;12.55;86.65;102084.19;5010575;28;20045;-57
2022/04/14 08:08:10;;;;;;;27.02;19.23;;;;;;;12.64;87.20;102080.69;5003041;28;20517;-56
2022/04/14 08:10:36;;;;;;;24.02;17.40;;;;;;;12.75;86.95;102088.50;5003677;28;20034;-56
2022/04/14 08:13:02;;;;;;;25.13;17.50;;;;;;;12.77;84.18;102085.66;5007682;28;20037;-57
2022/04/14 08:15:31;;;;;;;28.52;17.58;;;;;;;12.83;84.32;102078.94;5008175;28;20496;-56
2022/04/14 08:17:57;;;;;;;23.92;16.50;;;;;;;12.98;83.71;102082.78;5006227;28;20054;-56
2022/04/14 08:20:23;;;;;;;27.58;16.15;;;;;;;13.01;82.79;102093.16;5006476;28;20057;-55
2022/04/14 08:22:51;;;;;;;23.10;17.13;;;;;;;12.98;82.59;102093.44;4999255;28;20523;-58
2022/04/14 08:25:18;;;;;;;20.42;14.68;;;;;;;13.02;80.87;102089.50;5005573;28;20033;-57
2022/04/14 08:27:44;;;;;;;27.98;18.25;;;;;;;13.19;83.86;102090.53;5001849;28;20042;-57
2022/04/14 08:30:10;;;;;;;26.92;19.02;;;;;;;13.17;83.95;102081.84;5011384;28;20041;-57
2022/04/14 08:32:35;;;;;;;24.58;17.27;;;;;;;13.30;82.52;102092.19;5003762;28;20048;-56
2022/04/14 08:35:02;;;;;;;22.83;17.83;;;;;;;13.30;81.99;102094.84;5013005;28;20112;-57
2022/04/14 08:37:28;;;;;;;24.05;17.67;;;;;;;13.31;82.27;102093.84;5014634;28;20249;-57
2022/04/14 08:39:53;;;;;;;22.67;17.10;;;;;;;13.32;80.96;102095.53;5005689;28;20474;-57
2022/04/14 08:42:25;;;;;;;25.23;17.52;;;;;;;13.38;81.35;102087.91;5014691;28;20113;-57
2022/04/14 08:45:00;;;;;;;22.52;15.73;;;;;;;13.50;80.23;102080.56;5011739;28;20042;-56
2022/04/14 08:47:29;;;;;;;23.55;15.68;;;;;;;13.42;79.56;102082.13;5010466;28;20030;-56
2022/04/14 08:49:56;;;;;;;23.25;15.15;;;;;;;13.43;78.93;102075.81;5007802;28;20060;-56
2022/04/14 08:52:22;;;;;;;23.95;15.57;;;;;;;13.65;80.33;102084.41;5025359;28;20036;-57
2022/04/14 08:54:49;;;;;;;20.08;13.85;;;;;;;13.61;77.71;102082.22;5004090;28;20022;-58
2022/04/14 08:57:16;;;;;;;18.58;13.00;;;;;;;13.80;79.57;102087.38;5012748;28;20061;-57
2022/04/14 08:59:43;;;;;;;19.30;11.30;;;;;;;13.95;77.66;102086.84;5017597;28;20068;-58
2022/04/14 09:02:14;;;;;;;17.92;12.02;;;;;;;14.10;78.19;102087.97;5007759;28;20597;-56
2022/04/14 09:04:41;;;;;;;16.40;10.00;;;;;;;14.13;74.11;102087.66;5017458;28;20468;-57
2022/04/14 09:07:08;;;;;;;18.27;10.70;;;;;;;14.14;76.19;102088.50;5016679;28;20026;-57
2022/04/14 09:09:33;;;;;;;16.90;10.07;;;;;;;14.16;72.36;102088.34;5014768;28;20091;-58
2022/04/14 09:11:59;;;;;;;17.15;10.20;;;;;;;14.21;74.89;102089.56;5015180;28;20034;-58
2022/04/14 09:14:24;;;;;;;17.10;10.20;;;;;;;14.35;74.19;102089.97;5024402;28;20038;-57
2022/04/14 09:16:51;;;;;;;15.35;9.85;;;;;;;14.26;72.38;102091.75;5008200;28;20052;-57
2022/04/14 09:19:16;;;;;;;17.17;10.27;;;;;;;14.38;72.84;102085.19;5013115;28;20120;-58
2022/04/14 09:22:02;;;;;;;17.35;10.85;;;;;;;14.46;75.85;102075.56;5014082;28;20125;-56
2022/04/14 09:24:48;;;;;;;15.43;9.68;;;;;;;14.59;73.20;102069.78;5012724;28;20026;-58
2022/04/14 09:27:35;;;;;;;13.93;9.65;;;;;;;14.64;72.26;102072.81;5009342;28;20462;-57
2022/04/14 09:30:04;;;;;;;14.27;9.73;;;;;;;14.56;71.50;102073.59;5024334;28;20493;-58
2022/04/14 09:32:34;;;;;;;14.15;8.80;;;;;;;14.66;71.13;102073.53;5008911;28;20079;-57
2022/04/14 09:35:03;;;;;;;14.50;8.93;;;;;;;14.74;71.00;102057.56;5008753;28;20034;-58
2022/04/14 09:37:29;;;;;;;12.05;7.85;;;;;;;14.89;71.59;102055.13;5013860;28;20026;-57
2022/04/14 09:40:00;;;;;;;13.73;7.53;;;;;;;15.03;69.99;102063.53;5010224;28;20036;-57
2022/04/14 09:42:31;;;;;;;12.18;8.32;;;;;;;14.91;67.45;102053.13;5008144;28;20026;-58
2022/04/14 09:45:22;;;;;;;13.07;8.50;;;;;;;15.07;69.64;102056.88;5008938;28;20034;-57
2022/04/14 09:47:49;;;;;;;13.65;8.40;;;;;;;15.15;69.33;102054.22;5017874;28;20097;-57
2022/04/14 09:50:39;;;;;;;11.98;8.50;;;;;;;15.30;68.59;102056.28;5009341;28;20068;-58
2022/04/14 09:53:12;;;;;;;9.57;6.43;;;;;;;15.34;64.80;102052.25;5003955;28;20033;-59
2022/04/14 09:55:40;;;;;;;9.65;7.13;;;;;;;15.30;63.68;102045.59;5010869;28;20050;-58
2022/04/14 09:58:06;;;;;;;11.95;8.30;;;;;;;15.37;63.83;102043.94;5009950;28;20030;-57
2022/04/14 10:00:38;;;;;;;13.23;8.50;;;;;;;15.53;66.47;102045.78;5016462;28;20064;-58
2022/04/14 10:03:08;;;;;;;11.93;8.35;;;;;;;15.51;65.83;102041.59;5010074;28;20044;-57
2022/04/14 10:05:35;;;;;;;12.15;7.68;;;;;;;15.62;67.32;102033.28;5005999;28;20420;-58
2022/04/14 10:08:00;;;;;;;11.10;7.38;;;;;;;15.60;63.43;102037.97;5011938;28;20030;-58
2022/04/14 10:10:25;;;;;;;13.40;8.45;;;;;;;15.66;63.89;102034.63;5010258;28;20037;-58
2022/04/14 10:13:02;;;;;;;14.60;8.07;;;;;;;15.86;65.46;102037.81;5006220;28;20036;-57
2022/04/14 10:15:29;;;;;;;11.88;6.60;;;;;;;15.90;64.23;102046.34;5003933;28;20040;-57
2022/04/14 10:17:54;;;;;;;8.80;5.95;;;;;;;15.90;60.89;102057.03;5012612;28;20120;-59
2022/04/14 10:20:20;;;;;;;9.65;6.30;;;;;;;15.93;60.12;102059.38;5001381;28;20136;-59
2022/04/14 10:22:46;;;;;;;9.10;6.20;;;;;;;16.10;63.22;102067.41;5015080;28;20073;-59
2022/04/14 10:25:13;;;;;;;7.88;4.53;;;;;;;16.16;57.65;102077.44;5006144;28;20038;-57
2022/04/14 10:27:39;;;;;;;9.40;5.30;;;;;;;16.03;58.96;102077.13;5013346;28;20433;-57
2022/04/14 10:30:06;;;;;;;9.02;5.53;;;;;;;16.02;63.76;102080.81;5009708;28;20034;-58
2022/04/14 10:32:33;;;;;;;9.38;6.18;;;;;;;16.06;62.08;102071.41;4997306;28;20173;-58
2022/04/14 10:34:59;;;;;;;10.25;6.45;;;;;;;16.22;61.33;102076.78;5001883;28;20041;-57
2022/04/14 10:37:31;;;;;;;9.52;6.45;;;;;;;16.15;62.33;102070.44;5003863;28;20500;-57
2022/04/14 10:39:57;;;;;;;12.43;7.30;;;;;;;16.04;62.63;102084.13;5004661;28;20028;-59
2022/04/14 10:42:25;;;;;;;9.50;5.40;;;;;;;15.93;59.20;102085.31;5003224;28;20323;-57
2022/04/14 10:44:52;;;;;;;7.28;5.00;;;;;;;16.19;59.19;102098.50;5001337;28;20034;-57
2022/04/14 10:47:42;;;;;;;6.80;4.40;;;;;;;16.45;58.99;102092.13;5001844;28;20059;-58
2022/04/14 10:50:19;;;;;;;5.03;3.40;;;;;;;16.51;57.68;102070.03;5008558;28;20588;-58
2022/04/14 10:53:01;;;;;;;6.05;4.38;;;;;;;16.58;59.01;102078.19;5010725;28;20068;-58
2022/04/14 10:55:37;;;;;;;7.05;4.28;;;;;;;16.62;59.97;102082.22;5006865;28;20105;-58
2022/04/14 10:58:03;;;;;;;5.03;3.47;;;;;;;16.60;57.04;102083.38;5016763;28;20030;-57
2022/04/14 11:00:31;;;;;;;4.53;3.42;;;;;;;16.62;55.73;102081.41;5007653;28;20473;-57
2022/04/14 11:03:07;;;;;;;6.20;3.40;;;;;;;16.67;55.66;102081.69;5011950;28;20060;-56
2022/04/14 11:05:45;;;;;;;6.03;4.55;;;;;;;16.75;57.05;102065.63;5007071;28;20124;-56
2022/04/14 11:08:31;;;;;;;9.23;5.30;;;;;;;16.96;57.88;102066.88;5007930;28;20076;-56
2022/04/14 11:11:15;;;;;;;7.90;4.82;;;;;;;17.01;56.07;102080.56;5006614;28;20044;-56